San Jose, California
Current Conditions -  °F | °C
As of 9:53 PM on Tuesday 21 Oct 2014 (Local Time) from KSJC Reporting Station
Clear Clear  
Wind Chill: 59°   Ceiling: Unl
Heat Index: 59°   Visibility: 10mi
Dew Point: 49°   Wind: 3mph
Humidity: 69%   Direction: 270°W
Pressure: 30.05"   Gusts: NA
Location:  37.35°N, 121.9°W
Report Text: KSJC 220453Z 27003KT 10SM CLR 15/09 A3005 RMK AO2 SLP173 T01500094
Loading
Personal Weather Stations






























Interactive Weather Map
Tropical Storm Tracking
New forecast layout! Learn more

10-Day Weather Forecast

Advertisements
Track Severe Weather on mobile